sensor_id;sensor_type;location;lat;lon;timestamp;P1;durP1;ratioP1;P2;durP2;ratioP2
31990;SDS011;18508;49.386;8.370;2023-08-08T00:02:09;6.07;;;1.90;;
31990;SDS011;18508;49.386;8.370;2023-08-08T00:04:38;4.38;;;2.22;;
31990;SDS011;18508;49.386;8.370;2023-08-08T00:07:06;6.00;;;2.30;;
31990;SDS011;18508;49.386;8.370;2023-08-08T00:09:37;5.95;;;2.17;;
31990;SDS011;18508;49.386;8.370;2023-08-08T00:12:05;3.92;;;2.35;;
31990;SDS011;18508;49.386;8.370;2023-08-08T00:14:34;5.00;;;2.25;;
31990;SDS011;18508;49.386;8.370;2023-08-08T00:17:03;5.18;;;2.17;;
31990;SDS011;18508;49.386;8.370;2023-08-08T00:19:32;4.80;;;2.30;;
31990;SDS011;18508;49.386;8.370;2023-08-08T00:22:01;4.30;;;2.08;;
31990;SDS011;18508;49.386;8.370;2023-08-08T00:24:29;5.20;;;2.10;;
31990;SDS011;18508;49.386;8.370;2023-08-08T00:26:59;4.28;;;2.13;;
31990;SDS011;18508;49.386;8.370;2023-08-08T00:29:30;3.23;;;2.20;;
31990;SDS011;18508;49.386;8.370;2023-08-08T00:31:59;3.10;;;2.10;;
31990;SDS011;18508;49.386;8.370;2023-08-08T00:34:34;3.67;;;2.00;;
31990;SDS011;18508;49.386;8.370;2023-08-08T00:37:04;4.68;;;2.33;;
31990;SDS011;18508;49.386;8.370;2023-08-08T00:39:32;3.70;;;2.08;;
31990;SDS011;18508;49.386;8.370;2023-08-08T00:42:02;4.60;;;2.40;;
31990;SDS011;18508;49.386;8.370;2023-08-08T00:44:31;4.55;;;1.95;;
31990;SDS011;18508;49.386;8.370;2023-08-08T00:46:59;6.93;;;2.05;;
31990;SDS011;18508;49.386;8.370;2023-08-08T00:49:28;8.13;;;2.47;;
31990;SDS011;18508;49.386;8.370;2023-08-08T00:52:01;5.00;;;2.38;;
31990;SDS011;18508;49.386;8.370;2023-08-08T00:54:32;5.13;;;2.10;;
31990;SDS011;18508;49.386;8.370;2023-08-08T00:57:07;4.30;;;2.35;;
31990;SDS011;18508;49.386;8.370;2023-08-08T00:59:38;6.47;;;2.22;;
31990;SDS011;18508;49.386;8.370;2023-08-08T01:02:08;7.25;;;2.17;;
31990;SDS011;18508;49.386;8.370;2023-08-08T01:04:36;6.00;;;2.40;;
31990;SDS011;18508;49.386;8.370;2023-08-08T01:07:08;5.30;;;2.20;;
31990;SDS011;18508;49.386;8.370;2023-08-08T01:09:45;5.25;;;2.28;;
31990;SDS011;18508;49.386;8.370;2023-08-08T01:12:23;5.10;;;2.55;;
31990;SDS011;18508;49.386;8.370;2023-08-08T01:14:54;5.55;;;2.33;;
31990;SDS011;18508;49.386;8.370;2023-08-08T01:17:26;8.38;;;2.65;;
31990;SDS011;18508;49.386;8.370;2023-08-08T01:19:56;6.50;;;2.13;;
31990;SDS011;18508;49.386;8.370;2023-08-08T01:22:25;4.63;;;2.30;;
31990;SDS011;18508;49.386;8.370;2023-08-08T01:25:02;5.70;;;2.40;;
31990;SDS011;18508;49.386;8.370;2023-08-08T01:27:32;4.97;;;2.47;;
31990;SDS011;18508;49.386;8.370;2023-08-08T01:30:01;8.32;;;2.67;;
31990;SDS011;18508;49.386;8.370;2023-08-08T01:32:30;6.50;;;2.72;;
31990;SDS011;18508;49.386;8.370;2023-08-08T01:34:59;4.40;;;2.20;;
31990;SDS011;18508;49.386;8.370;2023-08-08T01:37:29;7.43;;;2.50;;
31990;SDS011;18508;49.386;8.370;2023-08-08T01:40:11;5.63;;;2.60;;
31990;SDS011;18508;49.386;8.370;2023-08-08T01:42:43;4.55;;;2.38;;
31990;SDS011;18508;49.386;8.370;2023-08-08T01:45:14;7.07;;;2.80;;
31990;SDS011;18508;49.386;8.370;2023-08-08T01:47:43;3.65;;;2.22;;
31990;SDS011;18508;49.386;8.370;2023-08-08T01:50:19;3.42;;;2.25;;
31990;SDS011;18508;49.386;8.370;2023-08-08T01:52:47;5.13;;;2.65;;
31990;SDS011;18508;49.386;8.370;2023-08-08T01:55:18;5.05;;;2.80;;
31990;SDS011;18508;49.386;8.370;2023-08-08T01:57:46;6.70;;;2.72;;
31990;SDS011;18508;49.386;8.370;2023-08-08T02:00:14;5.82;;;2.60;;
31990;SDS011;18508;49.386;8.370;2023-08-08T02:02:46;5.63;;;2.50;;
31990;SDS011;18508;49.386;8.370;2023-08-08T02:05:16;6.10;;;2.55;;
31990;SDS011;18508;49.386;8.370;2023-08-08T02:07:44;5.13;;;2.47;;
31990;SDS011;18508;49.386;8.370;2023-08-08T02:10:12;7.03;;;2.55;;
31990;SDS011;18508;49.386;8.370;2023-08-08T02:12:42;5.20;;;2.63;;
31990;SDS011;18508;49.386;8.370;2023-08-08T02:15:10;3.97;;;2.20;;
31990;SDS011;18508;49.386;8.370;2023-08-08T02:17:39;7.45;;;2.75;;
31990;SDS011;18508;49.386;8.370;2023-08-08T02:20:07;5.95;;;2.40;;
31990;SDS011;18508;49.386;8.370;2023-08-08T02:22:38;6.65;;;2.92;;
31990;SDS011;18508;49.386;8.370;2023-08-08T02:25:08;5.22;;;2.50;;
31990;SDS011;18508;49.386;8.370;2023-08-08T02:27:37;7.82;;;2.65;;
31990;SDS011;18508;49.386;8.370;2023-08-08T02:30:07;4.65;;;3.03;;
31990;SDS011;18508;49.386;8.370;2023-08-08T02:32:36;7.75;;;3.08;;
31990;SDS011;18508;49.386;8.370;2023-08-08T02:35:05;5.47;;;2.97;;
31990;SDS011;18508;49.386;8.370;2023-08-08T02:37:34;4.93;;;2.90;;
31990;SDS011;18508;49.386;8.370;2023-08-08T02:40:03;5.10;;;2.97;;
31990;SDS011;18508;49.386;8.370;2023-08-08T02:42:34;6.45;;;3.15;;
31990;SDS011;18508;49.386;8.370;2023-08-08T02:45:03;7.70;;;3.03;;
31990;SDS011;18508;49.386;8.370;2023-08-08T02:47:33;5.30;;;3.35;;
31990;SDS011;18508;49.386;8.370;2023-08-08T02:50:02;4.93;;;2.33;;
31990;SDS011;18508;49.386;8.370;2023-08-08T02:52:30;6.00;;;2.63;;
31990;SDS011;18508;49.386;8.370;2023-08-08T02:55:01;5.60;;;3.00;;
31990;SDS011;18508;49.386;8.370;2023-08-08T02:57:29;4.15;;;2.60;;
31990;SDS011;18508;49.386;8.370;2023-08-08T02:59:58;5.07;;;2.60;;
31990;SDS011;18508;49.386;8.370;2023-08-08T03:02:26;5.53;;;2.92;;
31990;SDS011;18508;49.386;8.370;2023-08-08T03:04:56;7.20;;;2.85;;
31990;SDS011;18508;49.386;8.370;2023-08-08T03:07:24;5.03;;;2.67;;
31990;SDS011;18508;49.386;8.370;2023-08-08T03:09:52;5.35;;;3.05;;
31990;SDS011;18508;49.386;8.370;2023-08-08T03:12:22;6.07;;;3.05;;
31990;SDS011;18508;49.386;8.370;2023-08-08T03:14:50;5.63;;;2.90;;
31990;SDS011;18508;49.386;8.370;2023-08-08T03:17:18;5.78;;;3.13;;
31990;SDS011;18508;49.386;8.370;2023-08-08T03:19:47;5.47;;;2.53;;
31990;SDS011;18508;49.386;8.370;2023-08-08T03:22:17;7.85;;;3.20;;
31990;SDS011;18508;49.386;8.370;2023-08-08T03:24:47;8.48;;;4.03;;
31990;SDS011;18508;49.386;8.370;2023-08-08T03:27:16;6.72;;;3.40;;
31990;SDS011;18508;49.386;8.370;2023-08-08T03:29:44;4.95;;;2.95;;
31990;SDS011;18508;49.386;8.370;2023-08-08T03:32:14;7.75;;;3.50;;
31990;SDS011;18508;49.386;8.370;2023-08-08T03:34:42;5.43;;;2.80;;
31990;SDS011;18508;49.386;8.370;2023-08-08T03:37:14;7.25;;;3.70;;
31990;SDS011;18508;49.386;8.370;2023-08-08T03:39:45;4.65;;;3.15;;
31990;SDS011;18508;49.386;8.370;2023-08-08T03:42:14;4.93;;;3.13;;
31990;SDS011;18508;49.386;8.370;2023-08-08T03:44:43;6.38;;;3.50;;
31990;SDS011;18508;49.386;8.370;2023-08-08T03:47:14;13.57;;;3.83;;
31990;SDS011;18508;49.386;8.370;2023-08-08T03:49:46;6.32;;;3.75;;
31990;SDS011;18508;49.386;8.370;2023-08-08T03:52:14;11.45;;;3.90;;
31990;SDS011;18508;49.386;8.370;2023-08-08T03:54:51;5.95;;;3.38;;
31990;SDS011;18508;49.386;8.370;2023-08-08T03:57:20;8.18;;;3.03;;
31990;SDS011;18508;49.386;8.370;2023-08-08T03:59:49;6.85;;;3.35;;
31990;SDS011;18508;49.386;8.370;2023-08-08T04:02:17;7.50;;;3.42;;
31990;SDS011;18508;49.386;8.370;2023-08-08T04:04:45;5.68;;;2.88;;
31990;SDS011;18508;49.386;8.370;2023-08-08T04:07:14;6.18;;;2.90;;
31990;SDS011;18508;49.386;8.370;2023-08-08T04:09:42;5.00;;;2.80;;
31990;SDS011;18508;49.386;8.370;2023-08-08T04:12:12;4.20;;;2.60;;
31990;SDS011;18508;49.386;8.370;2023-08-08T04:14:41;8.00;;;3.47;;
31990;SDS011;18508;49.386;8.370;2023-08-08T04:17:09;7.82;;;4.05;;
31990;SDS011;18508;49.386;8.370;2023-08-08T04:19:38;8.40;;;3.80;;
31990;SDS011;18508;49.386;8.370;2023-08-08T04:22:06;10.98;;;3.58;;
31990;SDS011;18508;49.386;8.370;2023-08-08T04:24:35;6.43;;;3.58;;
31990;SDS011;18508;49.386;8.370;2023-08-08T04:27:03;9.45;;;3.80;;
31990;SDS011;18508;49.386;8.370;2023-08-08T04:29:33;8.88;;;3.15;;
31990;SDS011;18508;49.386;8.370;2023-08-08T04:32:02;6.10;;;3.28;;
31990;SDS011;18508;49.386;8.370;2023-08-08T04:34:30;8.50;;;2.90;;
31990;SDS011;18508;49.386;8.370;2023-08-08T04:36:59;5.60;;;3.22;;
31990;SDS011;18508;49.386;8.370;2023-08-08T04:39:28;6.68;;;3.05;;
31990;SDS011;18508;49.386;8.370;2023-08-08T04:41:56;6.78;;;3.20;;
31990;SDS011;18508;49.386;8.370;2023-08-08T04:44:24;6.78;;;3.05;;
31990;SDS011;18508;49.386;8.370;2023-08-08T04:46:54;7.25;;;2.88;;
31990;SDS011;18508;49.386;8.370;2023-08-08T04:49:23;6.25;;;3.30;;
31990;SDS011;18508;49.386;8.370;2023-08-08T04:51:51;8.32;;;2.85;;
31990;SDS011;18508;49.386;8.370;2023-08-08T04:54:21;9.80;;;3.00;;
31990;SDS011;18508;49.386;8.370;2023-08-08T04:56:53;5.32;;;2.92;;
31990;SDS011;18508;49.386;8.370;2023-08-08T04:59:21;5.18;;;3.15;;
31990;SDS011;18508;49.386;8.370;2023-08-08T05:01:51;7.32;;;3.13;;
31990;SDS011;18508;49.386;8.370;2023-08-08T05:04:21;10.38;;;3.45;;
31990;SDS011;18508;49.386;8.370;2023-08-08T05:06:50;7.95;;;3.05;;
31990;SDS011;18508;49.386;8.370;2023-08-08T05:09:18;4.93;;;2.65;;
31990;SDS011;18508;49.386;8.370;2023-08-08T05:11:47;6.95;;;3.10;;
31990;SDS011;18508;49.386;8.370;2023-08-08T05:14:16;7.05;;;2.90;;
31990;SDS011;18508;49.386;8.370;2023-08-08T05:16:45;4.82;;;2.60;;
31990;SDS011;18508;49.386;8.370;2023-08-08T05:19:14;5.38;;;2.83;;
31990;SDS011;18508;49.386;8.370;2023-08-08T05:21:44;4.68;;;2.55;;
31990;SDS011;18508;49.386;8.370;2023-08-08T05:24:15;6.88;;;3.15;;
31990;SDS011;18508;49.386;8.370;2023-08-08T05:26:43;12.77;;;3.10;;
31990;SDS011;18508;49.386;8.370;2023-08-08T05:29:13;6.88;;;2.97;;
31990;SDS011;18508;49.386;8.370;2023-08-08T05:31:41;5.35;;;2.42;;
31990;SDS011;18508;49.386;8.370;2023-08-08T05:34:10;6.72;;;2.83;;
31990;SDS011;18508;49.386;8.370;2023-08-08T05:36:38;6.57;;;2.40;;
31990;SDS011;18508;49.386;8.370;2023-08-08T05:39:11;3.92;;;2.10;;
31990;SDS011;18508;49.386;8.370;2023-08-08T05:41:40;4.47;;;2.30;;
31990;SDS011;18508;49.386;8.370;2023-08-08T05:44:08;8.00;;;2.63;;
31990;SDS011;18508;49.386;8.370;2023-08-08T05:46:37;4.82;;;2.58;;
31990;SDS011;18508;49.386;8.370;2023-08-08T05:49:05;5.50;;;2.13;;
31990;SDS011;18508;49.386;8.370;2023-08-08T05:51:35;5.78;;;2.65;;
31990;SDS011;18508;49.386;8.370;2023-08-08T05:54:03;7.53;;;2.72;;
31990;SDS011;18508;49.386;8.370;2023-08-08T05:56:37;9.52;;;2.80;;
31990;SDS011;18508;49.386;8.370;2023-08-08T05:59:06;4.68;;;2.30;;
31990;SDS011;18508;49.386;8.370;2023-08-08T06:01:35;3.45;;;1.77;;
31990;SDS011;18508;49.386;8.370;2023-08-08T06:04:03;6.43;;;2.03;;
31990;SDS011;18508;49.386;8.370;2023-08-08T06:06:32;5.65;;;2.10;;
31990;SDS011;18508;49.386;8.370;2023-08-08T06:09:00;3.50;;;1.80;;
31990;SDS011;18508;49.386;8.370;2023-08-08T06:11:30;9.45;;;2.20;;
31990;SDS011;18508;49.386;8.370;2023-08-08T06:14:00;4.80;;;1.77;;
31990;SDS011;18508;49.386;8.370;2023-08-08T06:16:28;4.53;;;1.95;;
31990;SDS011;18508;49.386;8.370;2023-08-08T06:18:57;4.40;;;1.67;;
31990;SDS011;18508;49.386;8.370;2023-08-08T06:21:39;10.55;;;2.30;;
31990;SDS011;18508;49.386;8.370;2023-08-08T06:24:09;3.83;;;2.03;;
31990;SDS011;18508;49.386;8.370;2023-08-08T06:26:37;2.90;;;1.52;;
31990;SDS011;18508;49.386;8.370;2023-08-08T06:29:07;4.80;;;1.90;;
31990;SDS011;18508;49.386;8.370;2023-08-08T06:31:37;4.10;;;1.88;;
31990;SDS011;18508;49.386;8.370;2023-08-08T06:34:06;4.47;;;1.90;;
31990;SDS011;18508;49.386;8.370;2023-08-08T06:36:35;4.50;;;1.85;;
31990;SDS011;18508;49.386;8.370;2023-08-08T06:39:03;3.25;;;1.83;;
31990;SDS011;18508;49.386;8.370;2023-08-08T06:41:34;4.28;;;1.55;;
31990;SDS011;18508;49.386;8.370;2023-08-08T06:44:02;7.35;;;1.70;;
31990;SDS011;18508;49.386;8.370;2023-08-08T06:46:33;5.28;;;1.80;;
31990;SDS011;18508;49.386;8.370;2023-08-08T06:49:02;2.78;;;1.40;;
31990;SDS011;18508;49.386;8.370;2023-08-08T06:51:30;3.00;;;1.50;;
31990;SDS011;18508;49.386;8.370;2023-08-08T06:53:59;2.95;;;1.77;;
31990;SDS011;18508;49.386;8.370;2023-08-08T06:56:29;4.43;;;2.80;;
31990;SDS011;18508;49.386;8.370;2023-08-08T06:58:57;4.55;;;1.60;;
31990;SDS011;18508;49.386;8.370;2023-08-08T07:01:26;5.50;;;1.50;;
31990;SDS011;18508;49.386;8.370;2023-08-08T07:03:56;5.40;;;1.85;;
31990;SDS011;18508;49.386;8.370;2023-08-08T07:06:25;3.72;;;2.05;;
31990;SDS011;18508;49.386;8.370;2023-08-08T07:08:53;4.45;;;1.63;;
31990;SDS011;18508;49.386;8.370;2023-08-08T07:11:21;3.55;;;1.77;;
31990;SDS011;18508;49.386;8.370;2023-08-08T07:13:51;4.45;;;1.77;;
31990;SDS011;18508;49.386;8.370;2023-08-08T07:16:19;4.43;;;1.70;;
31990;SDS011;18508;49.386;8.370;2023-08-08T07:18:47;3.30;;;1.38;;
31990;SDS011;18508;49.386;8.370;2023-08-08T07:21:20;3.53;;;1.55;;
31990;SDS011;18508;49.386;8.370;2023-08-08T07:23:50;2.92;;;1.52;;
31990;SDS011;18508;49.386;8.370;2023-08-08T07:26:18;4.05;;;1.40;;
31990;SDS011;18508;49.386;8.370;2023-08-08T07:28:48;3.90;;;1.77;;
31990;SDS011;18508;49.386;8.370;2023-08-08T07:31:16;2.72;;;1.27;;
31990;SDS011;18508;49.386;8.370;2023-08-08T07:33:48;6.00;;;1.65;;
31990;SDS011;18508;49.386;8.370;2023-08-08T07:36:16;3.85;;;1.25;;
31990;SDS011;18508;49.386;8.370;2023-08-08T07:38:46;4.38;;;1.85;;
31990;SDS011;18508;49.386;8.370;2023-08-08T07:41:15;4.55;;;1.65;;
31990;SDS011;18508;49.386;8.370;2023-08-08T07:43:44;6.15;;;1.90;;
31990;SDS011;18508;49.386;8.370;2023-08-08T07:46:12;3.08;;;1.50;;
31990;SDS011;18508;49.386;8.370;2023-08-08T07:48:41;2.38;;;1.20;;
31990;SDS011;18508;49.386;8.370;2023-08-08T07:51:11;5.15;;;2.08;;
31990;SDS011;18508;49.386;8.370;2023-08-08T07:53:41;3.20;;;1.67;;
31990;SDS011;18508;49.386;8.370;2023-08-08T07:56:15;2.70;;;1.45;;
31990;SDS011;18508;49.386;8.370;2023-08-08T07:58:44;3.10;;;1.20;;
31990;SDS011;18508;49.386;8.370;2023-08-08T08:01:12;3.90;;;1.50;;
31990;SDS011;18508;49.386;8.370;2023-08-08T08:03:42;4.18;;;1.40;;
31990;SDS011;18508;49.386;8.370;2023-08-08T08:06:10;6.80;;;1.55;;
31990;SDS011;18508;49.386;8.370;2023-08-08T08:08:39;2.80;;;1.70;;
31990;SDS011;18508;49.386;8.370;2023-08-08T08:11:07;5.47;;;1.88;;
31990;SDS011;18508;49.386;8.370;2023-08-08T08:13:37;5.95;;;1.80;;
31990;SDS011;18508;49.386;8.370;2023-08-08T08:16:05;2.88;;;1.00;;
31990;SDS011;18508;49.386;8.370;2023-08-08T08:18:35;3.83;;;1.38;;
31990;SDS011;18508;49.386;8.370;2023-08-08T08:21:04;5.13;;;1.40;;
31990;SDS011;18508;49.386;8.370;2023-08-08T08:23:37;5.50;;;1.52;;
31990;SDS011;18508;49.386;8.370;2023-08-08T08:26:05;4.15;;;1.40;;
31990;SDS011;18508;49.386;8.370;2023-08-08T08:28:33;3.30;;;1.48;;
31990;SDS011;18508;49.386;8.370;2023-08-08T08:31:05;5.43;;;1.10;;
31990;SDS011;18508;49.386;8.370;2023-08-08T08:33:34;3.92;;;1.45;;
31990;SDS011;18508;49.386;8.370;2023-08-08T08:36:06;2.33;;;0.90;;
31990;SDS011;18508;49.386;8.370;2023-08-08T08:38:39;2.05;;;1.00;;
31990;SDS011;18508;49.386;8.370;2023-08-08T08:41:09;2.63;;;1.13;;
31990;SDS011;18508;49.386;8.370;2023-08-08T08:43:43;4.07;;;1.10;;
31990;SDS011;18508;49.386;8.370;2023-08-08T08:46:13;2.67;;;1.35;;
31990;SDS011;18508;49.386;8.370;2023-08-08T08:48:45;3.75;;;1.40;;
31990;SDS011;18508;49.386;8.370;2023-08-08T08:51:15;3.33;;;1.00;;
31990;SDS011;18508;49.386;8.370;2023-08-08T08:53:43;2.55;;;0.82;;
31990;SDS011;18508;49.386;8.370;2023-08-08T08:56:13;2.63;;;1.02;;
31990;SDS011;18508;49.386;8.370;2023-08-08T08:58:43;2.42;;;1.10;;
31990;SDS011;18508;49.386;8.370;2023-08-08T09:01:16;2.55;;;1.30;;
31990;SDS011;18508;49.386;8.370;2023-08-08T09:03:45;2.72;;;0.90;;
31990;SDS011;18508;49.386;8.370;2023-08-08T09:06:13;3.47;;;0.98;;
31990;SDS011;18508;49.386;8.370;2023-08-08T09:08:46;5.05;;;1.00;;
31990;SDS011;18508;49.386;8.370;2023-08-08T09:11:17;2.30;;;0.90;;
31990;SDS011;18508;49.386;8.370;2023-08-08T09:13:46;3.75;;;1.13;;
31990;SDS011;18508;49.386;8.370;2023-08-08T09:16:14;4.40;;;1.20;;
31990;SDS011;18508;49.386;8.370;2023-08-08T09:18:45;5.28;;;1.20;;
31990;SDS011;18508;49.386;8.370;2023-08-08T09:21:14;2.45;;;1.00;;
31990;SDS011;18508;49.386;8.370;2023-08-08T09:23:43;5.93;;;1.38;;
31990;SDS011;18508;49.386;8.370;2023-08-08T09:26:12;3.08;;;1.10;;
31990;SDS011;18508;49.386;8.370;2023-08-08T09:28:45;2.83;;;1.48;;
31990;SDS011;18508;49.386;8.370;2023-08-08T09:31:17;3.15;;;1.27;;
31990;SDS011;18508;49.386;8.370;2023-08-08T09:33:46;6.80;;;1.40;;
31990;SDS011;18508;49.386;8.370;2023-08-08T09:36:16;3.70;;;1.30;;
31990;SDS011;18508;49.386;8.370;2023-08-08T09:38:46;4.38;;;1.10;;
31990;SDS011;18508;49.386;8.370;2023-08-08T09:41:15;4.35;;;1.02;;
31990;SDS011;18508;49.386;8.370;2023-08-08T09:43:44;5.10;;;1.48;;
31990;SDS011;18508;49.386;8.370;2023-08-08T09:46:17;2.92;;;1.05;;
31990;SDS011;18508;49.386;8.370;2023-08-08T09:48:47;3.85;;;1.30;;
31990;SDS011;18508;49.386;8.370;2023-08-08T09:51:15;6.00;;;1.35;;
31990;SDS011;18508;49.386;8.370;2023-08-08T09:53:44;4.13;;;1.20;;
31990;SDS011;18508;49.386;8.370;2023-08-08T09:56:18;3.40;;;1.25;;
31990;SDS011;18508;49.386;8.370;2023-08-08T09:58:48;5.43;;;1.38;;
31990;SDS011;18508;49.386;8.370;2023-08-08T10:01:18;3.40;;;1.20;;
31990;SDS011;18508;49.386;8.370;2023-08-08T10:03:49;2.20;;;1.10;;
31990;SDS011;18508;49.386;8.370;2023-08-08T10:06:19;6.72;;;1.45;;
31990;SDS011;18508;49.386;8.370;2023-08-08T10:08:48;3.38;;;1.50;;
31990;SDS011;18508;49.386;8.370;2023-08-08T10:11:17;6.53;;;1.38;;
31990;SDS011;18508;49.386;8.370;2023-08-08T10:13:52;4.60;;;1.50;;
31990;SDS011;18508;49.386;8.370;2023-08-08T10:16:27;2.72;;;1.25;;
31990;SDS011;18508;49.386;8.370;2023-08-08T10:18:57;3.55;;;1.10;;
31990;SDS011;18508;49.386;8.370;2023-08-08T10:21:32;6.20;;;1.20;;
31990;SDS011;18508;49.386;8.370;2023-08-08T10:24:05;2.60;;;1.10;;
31990;SDS011;18508;49.386;8.370;2023-08-08T10:29:21;2.30;;;1.10;;
31990;SDS011;18508;49.386;8.370;2023-08-08T10:31:57;2.17;;;0.93;;
31990;SDS011;18508;49.386;8.370;2023-08-08T10:34:36;3.20;;;1.13;;
31990;SDS011;18508;49.386;8.370;2023-08-08T10:37:08;4.90;;;1.10;;
31990;SDS011;18508;49.386;8.370;2023-08-08T10:39:50;4.68;;;1.63;;
31990;SDS011;18508;49.386;8.370;2023-08-08T10:42:20;3.70;;;1.02;;
31990;SDS011;18508;49.386;8.370;2023-08-08T10:44:52;3.53;;;1.20;;
31990;SDS011;18508;49.386;8.370;2023-08-08T10:47:23;3.60;;;1.20;;
31990;SDS011;18508;49.386;8.370;2023-08-08T10:49:58;7.80;;;1.48;;
31990;SDS011;18508;49.386;8.370;2023-08-08T10:52:28;4.20;;;1.40;;
31990;SDS011;18508;49.386;8.370;2023-08-08T10:54:57;4.10;;;1.50;;
31990;SDS011;18508;49.386;8.370;2023-08-08T10:57:29;4.63;;;1.80;;
31990;SDS011;18508;49.386;8.370;2023-08-08T11:02:50;4.55;;;1.40;;
31990;SDS011;18508;49.386;8.370;2023-08-08T11:05:19;2.83;;;1.60;;
31990;SDS011;18508;49.386;8.370;2023-08-08T11:07:49;1.98;;;1.02;;
31990;SDS011;18508;49.386;8.370;2023-08-08T11:10:18;3.03;;;1.10;;
31990;SDS011;18508;49.386;8.370;2023-08-08T11:12:52;5.85;;;1.60;;
31990;SDS011;18508;49.386;8.370;2023-08-08T11:15:26;5.50;;;1.60;;
31990;SDS011;18508;49.386;8.370;2023-08-08T11:17:58;6.00;;;1.67;;
31990;SDS011;18508;49.386;8.370;2023-08-08T11:20:31;6.00;;;1.30;;
31990;SDS011;18508;49.386;8.370;2023-08-08T11:23:00;2.67;;;1.00;;
31990;SDS011;18508;49.386;8.370;2023-08-08T11:25:31;2.92;;;1.25;;
31990;SDS011;18508;49.386;8.370;2023-08-08T11:28:04;7.28;;;1.80;;
31990;SDS011;18508;49.386;8.370;2023-08-08T11:30:33;4.95;;;2.30;;
31990;SDS011;18508;49.386;8.370;2023-08-08T11:33:06;5.90;;;1.37;;
31990;SDS011;18508;49.386;8.370;2023-08-08T11:35:44;4.75;;;1.23;;
31990;SDS011;18508;49.386;8.370;2023-08-08T11:38:17;6.30;;;1.20;;
31990;SDS011;18508;49.386;8.370;2023-08-08T11:40:48;7.03;;;1.30;;
31990;SDS011;18508;49.386;8.370;2023-08-08T11:43:18;2.63;;;1.13;;
31990;SDS011;18508;49.386;8.370;2023-08-08T11:45:48;3.47;;;1.13;;
31990;SDS011;18508;49.386;8.370;2023-08-08T11:51:03;2.97;;;1.13;;
31990;SDS011;18508;49.386;8.370;2023-08-08T11:53:31;4.05;;;1.13;;
31990;SDS011;18508;49.386;8.370;2023-08-08T11:56:00;2.50;;;0.90;;
31990;SDS011;18508;49.386;8.370;2023-08-08T11:58:30;2.63;;;1.20;;
31990;SDS011;18508;49.386;8.370;2023-08-08T12:00:58;1.52;;;0.80;;
31990;SDS011;18508;49.386;8.370;2023-08-08T12:03:27;2.35;;;1.00;;
31990;SDS011;18508;49.386;8.370;2023-08-08T12:06:00;2.70;;;0.73;;
31990;SDS011;18508;49.386;8.370;2023-08-08T12:08:30;3.13;;;1.08;;
31990;SDS011;18508;49.386;8.370;2023-08-08T12:11:00;10.05;;;1.23;;
31990;SDS011;18508;49.386;8.370;2023-08-08T12:13:32;2.78;;;0.80;;
31990;SDS011;18508;49.386;8.370;2023-08-08T12:16:06;1.67;;;0.73;;
31990;SDS011;18508;49.386;8.370;2023-08-08T12:18:43;2.65;;;0.90;;
31990;SDS011;18508;49.386;8.370;2023-08-08T12:21:16;3.15;;;1.13;;
31990;SDS011;18508;49.386;8.370;2023-08-08T12:23:44;3.90;;;1.10;;
31990;SDS011;18508;49.386;8.370;2023-08-08T12:26:15;3.83;;;1.10;;
31990;SDS011;18508;49.386;8.370;2023-08-08T12:28:44;2.72;;;0.95;;
31990;SDS011;18508;49.386;8.370;2023-08-08T12:31:13;3.47;;;1.00;;
31990;SDS011;18508;49.386;8.370;2023-08-08T12:33:42;1.77;;;0.90;;
31990;SDS011;18508;49.386;8.370;2023-08-08T12:36:13;1.80;;;0.90;;
31990;SDS011;18508;49.386;8.370;2023-08-08T12:39:02;3.50;;;1.13;;
31990;SDS011;18508;49.386;8.370;2023-08-08T12:41:31;2.40;;;1.30;;
31990;SDS011;18508;49.386;8.370;2023-08-08T12:44:00;3.15;;;1.40;;
31990;SDS011;18508;49.386;8.370;2023-08-08T12:46:30;4.05;;;1.08;;
31990;SDS011;18508;49.386;8.370;2023-08-08T12:48:59;2.42;;;0.93;;
31990;SDS011;18508;49.386;8.370;2023-08-08T12:51:30;2.78;;;0.88;;
31990;SDS011;18508;49.386;8.370;2023-08-08T12:53:59;2.90;;;1.10;;
31990;SDS011;18508;49.386;8.370;2023-08-08T12:56:30;3.20;;;1.25;;
31990;SDS011;18508;49.386;8.370;2023-08-08T12:58:58;2.42;;;0.95;;
31990;SDS011;18508;49.386;8.370;2023-08-08T13:01:29;4.03;;;1.05;;
31990;SDS011;18508;49.386;8.370;2023-08-08T13:03:57;3.13;;;1.00;;
31990;SDS011;18508;49.386;8.370;2023-08-08T13:06:46;2.85;;;0.98;;
31990;SDS011;18508;49.386;8.370;2023-08-08T13:09:15;4.60;;;1.10;;
31990;SDS011;18508;49.386;8.370;2023-08-08T13:11:44;3.95;;;1.20;;
31990;SDS011;18508;49.386;8.370;2023-08-08T13:14:12;2.55;;;1.13;;
31990;SDS011;18508;49.386;8.370;2023-08-08T13:16:42;4.38;;;1.15;;
31990;SDS011;18508;49.386;8.370;2023-08-08T13:19:15;5.22;;;1.55;;
31990;SDS011;18508;49.386;8.370;2023-08-08T13:21:47;6.88;;;1.33;;
31990;SDS011;18508;49.386;8.370;2023-08-08T13:24:19;3.60;;;1.15;;
31990;SDS011;18508;49.386;8.370;2023-08-08T13:26:49;1.80;;;0.90;;
31990;SDS011;18508;49.386;8.370;2023-08-08T13:29:18;4.93;;;1.00;;
31990;SDS011;18508;49.386;8.370;2023-08-08T13:31:46;2.85;;;1.08;;
31990;SDS011;18508;49.386;8.370;2023-08-08T13:34:19;2.92;;;0.88;;
31990;SDS011;18508;49.386;8.370;2023-08-08T13:36:49;6.57;;;1.25;;
31990;SDS011;18508;49.386;8.370;2023-08-08T13:39:18;2.42;;;0.88;;
31990;SDS011;18508;49.386;8.370;2023-08-08T13:41:47;1.75;;;0.75;;
31990;SDS011;18508;49.386;8.370;2023-08-08T13:44:16;2.95;;;1.08;;
31990;SDS011;18508;49.386;8.370;2023-08-08T13:46:46;3.00;;;1.10;;
31990;SDS011;18508;49.386;8.370;2023-08-08T13:49:17;5.38;;;1.08;;
31990;SDS011;18508;49.386;8.370;2023-08-08T13:51:49;2.38;;;0.90;;
31990;SDS011;18508;49.386;8.370;2023-08-08T13:54:20;2.33;;;0.80;;
31990;SDS011;18508;49.386;8.370;2023-08-08T13:56:51;5.07;;;1.23;;
31990;SDS011;18508;49.386;8.370;2023-08-08T13:59:19;4.35;;;0.93;;
31990;SDS011;18508;49.386;8.370;2023-08-08T14:01:48;3.47;;;1.02;;
31990;SDS011;18508;49.386;8.370;2023-08-08T14:04:16;2.80;;;0.98;;
31990;SDS011;18508;49.386;8.370;2023-08-08T14:06:45;3.38;;;1.10;;
31990;SDS011;18508;49.386;8.370;2023-08-08T14:09:15;4.72;;;1.10;;
31990;SDS011;18508;49.386;8.370;2023-08-08T14:11:45;4.00;;;1.30;;
31990;SDS011;18508;49.386;8.370;2023-08-08T14:14:16;2.45;;;0.93;;
31990;SDS011;18508;49.386;8.370;2023-08-08T14:16:44;2.25;;;0.85;;
31990;SDS011;18508;49.386;8.370;2023-08-08T14:19:14;2.60;;;0.90;;
31990;SDS011;18508;49.386;8.370;2023-08-08T14:21:43;2.60;;;0.90;;
31990;SDS011;18508;49.386;8.370;2023-08-08T14:24:15;3.05;;;1.05;;
31990;SDS011;18508;49.386;8.370;2023-08-08T14:26:44;2.65;;;0.90;;
31990;SDS011;18508;49.386;8.370;2023-08-08T14:29:15;2.60;;;0.98;;
31990;SDS011;18508;49.386;8.370;2023-08-08T14:31:44;3.20;;;0.90;;
31990;SDS011;18508;49.386;8.370;2023-08-08T14:34:32;4.10;;;1.10;;
31990;SDS011;18508;49.386;8.370;2023-08-08T14:37:07;3.25;;;1.10;;
31990;SDS011;18508;49.386;8.370;2023-08-08T14:42:42;3.80;;;1.17;;
31990;SDS011;18508;49.386;8.370;2023-08-08T14:45:11;2.97;;;1.15;;
31990;SDS011;18508;49.386;8.370;2023-08-08T14:47:41;3.35;;;1.30;;
31990;SDS011;18508;49.386;8.370;2023-08-08T14:50:11;2.38;;;1.20;;
31990;SDS011;18508;49.386;8.370;2023-08-08T14:52:51;3.42;;;1.30;;
31990;SDS011;18508;49.386;8.370;2023-08-08T14:55:20;4.43;;;1.30;;
31990;SDS011;18508;49.386;8.370;2023-08-08T14:57:51;3.70;;;1.17;;
31990;SDS011;18508;49.386;8.370;2023-08-08T15:00:20;6.45;;;1.70;;
31990;SDS011;18508;49.386;8.370;2023-08-08T15:02:49;4.45;;;1.60;;
31990;SDS011;18508;49.386;8.370;2023-08-08T15:05:22;12.50;;;6.82;;
31990;SDS011;18508;49.386;8.370;2023-08-08T15:07:51;9.65;;;4.35;;
31990;SDS011;18508;49.386;8.370;2023-08-08T15:10:22;13.43;;;7.75;;
31990;SDS011;18508;49.386;8.370;2023-08-08T15:13:14;7.53;;;1.40;;
31990;SDS011;18508;49.386;8.370;2023-08-08T15:15:42;2.08;;;1.10;;
31990;SDS011;18508;49.386;8.370;2023-08-08T15:18:12;6.25;;;1.15;;